TFM - Tactical Decision Aid
ID: Runway Winds: CIG/VIS Threshold:

KGSP - Greenville-Spartansb, SC, US

Updated at: 0227 UTC 20 Sep 2020
Latest TAF at: 2338 UTC 19 Sep 2020

TAF Board

Time0153Z 20/03Z 20/04Z 20/05Z 20/06Z 20/07Z 20/08Z 20/09Z 20/10Z 20/11Z 20/12Z 20/13Z 20/14Z 20/15Z>>
Type OBS PRVL PRVL PRVL PRVL PRVL PRVL PRVL PRVL PRVL PRVL PRVL PRVL PRVL
VIS 10 >6 >6 >6 >6 >6 >6 >6 >6 >6 >6 >6 >6 >6
CIG -- 250 250 250 250 250 250 250 250 250 250 250 -- --
Cover CLR BKN BKN BKN BKN BKN BKN BKN BKN BKN BKN BKN FEW FEW
FltCat VFR VFR VFR VFR VFR VFR VFR VFR VFR VFR VFR VFR VFR VFR
WX -- -- -- -- -- -- -- -- -- -- -- -- -- --
WDir 50 50 50 50 50 50 50 50 50 50 50 50 40 40
WSpd 5 6 6 6 6 6 6 6 6 6 6 6 12 12
WGst -- -- -- -- -- -- -- -- -- -- -- -- 18 18

TDA Impact Legend

  None Marginal Slight Moderate High
Visibility (sm) >5 2.9≤X≤5 0.9≤X<2.9 <0.9
Ceiling (100 ft) >30 9.9≤X≤30 4.9≤X<9.9 <4.9
Wind Speed (kt) <15 15≤X<25 25≤X<30 ≥30
Wind Gust (kt) <15 15≤X<25 25≤X<35 ≥35
Weather No Wx Reported VCTS -TS,-FZRA TS,FZRA +TS,+FZRA
TAF
KGSP 192338Z 2000/2024 05006KT P6SM BKN250
  FM201400 04012G18KT P6SM FEW250
  FM202100 05008KT P6SM SKC


METAR
KGSP 200153Z 05005KT 10SM CLR 14/11 A3028 RMK AO2 SLP247 T01440106
KGSP 200053Z 06005KT 10SM CLR 15/11 A3026 RMK AO2 SLP240 T01500106
KGSP 192353Z 05006KT 10SM CLR 15/11 A3023 RMK AO2 SLP229 T01500106 10200 20150 53004

Radar Display
Forecast Discussion